Time;durP1;ratioP1;P1;durP2;ratioP2;P2;SDS_P1;SDS_P2;PMS_P1;PMS_P2;Temp;Humidity;BMP_temperature;BMP_pressure;BME280_temperature;BME280_humidity;BME280_pressure;Samples;Min_cycle;Max_cycle;Signal;HPM_P1;HPM_P2
2022/03/27 00:01:58;;;;;;;12.37;3.62;;;;;;;2.05;61.43;102038.80;1649637;86;25952;-78
2022/03/27 00:04:25;;;;;;;20.55;5.33;;;;;;;2.03;61.39;102033.25;1631469;86;26283;-78
2022/03/27 00:06:51;;;;;;;12.13;4.28;;;;;;;2.03;61.67;102031.44;1642920;85;28290;-78
2022/03/27 00:09:17;;;;;;;11.50;3.50;;;;;;;2.03;61.44;102036.72;1631883;86;26572;-77
2022/03/27 00:11:43;;;;;;;13.78;4.08;;;;;;;2.02;61.48;102046.08;1639402;85;25339;-78
2022/03/27 00:14:09;;;;;;;14.20;4.45;;;;;;;2.03;61.47;102048.61;1631772;86;26540;-78
2022/03/27 00:16:36;;;;;;;12.93;3.90;;;;;;;2.08;61.49;102043.04;1639827;86;25892;-77
2022/03/27 00:19:02;;;;;;;8.80;4.08;;;;;;;2.06;61.58;102049.75;1633960;86;27471;-78
2022/03/27 00:21:29;;;;;;;11.50;4.85;;;;;;;2.02;61.49;102050.89;1644328;86;26055;-78
2022/03/27 00:23:56;;;;;;;9.65;3.77;;;;;;;1.98;61.60;102056.47;1632396;86;25863;-78
2022/03/27 00:26:22;;;;;;;12.95;4.10;;;;;;;1.94;61.73;102052.32;1633717;85;26026;-78
2022/03/27 00:28:50;;;;;;;15.48;4.62;;;;;;;1.88;61.78;102056.67;1650223;84;26059;-78
2022/03/27 00:31:17;;;;;;;20.57;4.12;;;;;;;1.84;61.88;102052.03;1654591;84;28284;-78
2022/03/27 00:33:46;;;;;;;15.78;4.12;;;;;;;1.81;62.16;102061.48;1648011;84;25936;-78
2022/03/27 00:36:15;;;;;;;11.68;3.75;;;;;;;1.82;62.21;102059.70;1643975;85;25958;-79
2022/03/27 00:38:43;;;;;;;12.88;4.35;;;;;;;1.77;62.28;102064.41;1655398;84;25898;-78
2022/03/27 00:41:10;;;;;;;11.28;4.03;;;;;;;1.74;62.43;102071.19;1623595;87;25919;-77
2022/03/27 00:43:36;;;;;;;15.20;4.50;;;;;;;1.73;62.44;102068.19;1614333;87;27459;-78
2022/03/27 00:46:03;;;;;;;13.50;4.92;;;;;;;1.73;62.50;102071.69;1649342;84;26089;-79
2022/03/27 00:48:29;;;;;;;12.68;5.15;;;;;;;1.77;62.40;102063.95;1619863;87;26551;-79
2022/03/27 00:50:55;;;;;;;10.72;4.15;;;;;;;1.80;62.41;102065.52;1621594;87;25878;-79
2022/03/27 00:53:22;;;;;;;12.82;4.35;;;;;;;1.77;62.35;102066.59;1653679;84;25769;-78
2022/03/27 00:55:49;;;;;;;13.25;4.50;;;;;;;1.73;62.57;102071.69;1647721;84;28233;-77
2022/03/27 00:58:18;;;;;;;17.37;5.25;;;;;;;1.66;62.76;102071.67;1648378;85;25832;-78
2022/03/27 01:00:58;;;;;;;13.50;4.30;;;;;;;1.58;62.89;102067.80;1655133;86;25874;-78
2022/03/27 01:03:26;;;;;;;11.93;4.08;;;;;;;1.50;63.00;102069.11;1643685;86;26001;-78
2022/03/27 01:05:55;;;;;;;12.28;4.15;;;;;;;1.51;63.28;102063.37;1651669;85;25890;-77
2022/03/27 01:11:21;;;;;;;20.75;5.90;;;;;;;1.43;63.39;102057.22;1644261;86;25873;-77
2022/03/27 01:13:57;;;;;;;10.30;4.03;;;;;;;1.46;63.45;102058.36;1635494;86;26607;-79
2022/03/27 01:16:43;;;;;;;14.45;4.42;;;;;;;1.45;63.62;102055.83;1634884;86;25846;-78
2022/03/27 01:19:13;;;;;;;13.22;4.53;;;;;;;1.42;63.66;102065.23;1639779;86;26629;-78
2022/03/27 01:21:44;;;;;;;17.10;4.70;;;;;;;1.40;63.69;102062.70;1650523;86;27480;-79
2022/03/27 01:24:11;;;;;;;13.78;5.20;;;;;;;1.39;63.84;102063.63;1660942;84;25897;-78
2022/03/27 01:26:39;;;;;;;19.02;4.30;;;;;;;1.33;63.72;102071.06;1658788;84;25331;-79
2022/03/27 01:29:07;;;;;;;17.12;4.58;;;;;;;1.33;64.00;102068.42;1665000;84;25938;-77
2022/03/27 01:31:34;;;;;;;12.65;4.80;;;;;;;1.29;64.10;102069.55;1655246;84;25914;-78
2022/03/27 01:34:01;;;;;;;13.13;4.67;;;;;;;1.23;64.45;102077.84;1643933;84;27535;-79
2022/03/27 01:36:34;;;;;;;8.90;4.30;;;;;;;1.13;64.86;102078.88;1621489;86;25907;-79
2022/03/27 01:39:03;;;;;;;13.43;4.25;;;;;;;1.10;64.68;102079.04;1633695;86;25958;-78
2022/03/27 01:41:29;;;;;;;14.05;5.47;;;;;;;1.07;64.89;102081.84;1667248;84;26283;-78
2022/03/27 01:43:56;;;;;;;13.75;3.92;;;;;;;1.04;64.99;102087.78;1664282;84;25790;-78
2022/03/27 01:46:22;;;;;;;13.68;4.55;;;;;;;0.98;65.37;102089.47;1654722;84;27453;-78
2022/03/27 01:48:48;;;;;;;11.25;4.42;;;;;;;0.95;65.61;102087.85;1659834;84;25309;-78
2022/03/27 01:51:15;;;;;;;14.83;4.70;;;;;;;0.93;65.53;102084.45;1657329;84;25774;-79
2022/03/27 01:53:41;;;;;;;22.60;4.78;;;;;;;0.95;65.60;102075.98;1657971;84;25987;-78
2022/03/27 01:56:09;;;;;;;12.73;4.28;;;;;;;0.93;65.89;102083.13;1616280;87;25939;-78
2022/03/27 01:58:39;;;;;;;14.78;5.65;;;;;;;0.89;65.80;102085.58;1651479;86;27466;-80
2022/03/27 02:01:07;;;;;;;11.38;4.15;;;;;;;0.89;65.68;102081.62;1639015;86;26060;-78
2022/03/27 02:03:34;;;;;;;13.35;4.78;;;;;;;0.92;65.60;102092.47;1631041;86;25932;-78
2022/03/27 02:06:05;;;;;;;13.05;4.72;;;;;;;0.93;65.59;102090.19;1630765;86;25794;-79
2022/03/27 02:08:30;;;;;;;19.37;4.60;;;;;;;0.90;65.62;102087.75;1638584;86;25819;-78
2022/03/27 02:10:56;;;;;;;15.15;4.72;;;;;;;0.89;65.67;102092.17;1660278;86;27522;-78
2022/03/27 02:13:22;;;;;;;13.75;4.70;;;;;;;0.93;65.70;102091.05;1638529;86;25906;-79
2022/03/27 02:15:50;;;;;;;13.32;4.62;;;;;;;0.91;65.59;102085.48;1607244;87;25956;-78
2022/03/27 02:18:17;;;;;;;14.53;4.62;;;;;;;0.89;65.58;102086.03;1648439;84;26560;-78
2022/03/27 02:20:44;;;;;;;15.35;4.70;;;;;;;0.91;65.68;102098.20;1649205;84;25860;-78
2022/03/27 02:23:12;;;;;;;15.43;4.55;;;;;;;0.91;65.70;102099.98;1653415;84;27465;-78
2022/03/27 02:25:39;;;;;;;13.72;4.40;;;;;;;0.83;65.77;102091.67;1618213;87;25887;-78
2022/03/27 02:28:08;;;;;;;11.30;4.10;;;;;;;0.79;65.96;102097.60;1578868;87;48953;-78
2022/03/27 02:30:34;;;;;;;11.48;4.33;;;;;;;0.77;66.09;102102.08;1656303;86;27136;-78
2022/03/27 02:33:01;;;;;;;14.47;5.25;;;;;;;0.73;65.95;102101.42;1655948;84;25815;-78
2022/03/27 02:35:27;;;;;;;15.63;4.62;;;;;;;0.71;66.39;102101.98;1647388;84;27455;-78
2022/03/27 02:37:54;;;;;;;13.22;4.37;;;;;;;0.65;66.26;102101.02;1651750;84;26089;-79
2022/03/27 02:40:20;;;;;;;13.58;4.62;;;;;;;0.64;66.37;102104.57;1654149;84;25690;-78
2022/03/27 02:42:48;;;;;;;13.58;4.80;;;;;;;0.65;66.37;102109.38;1657826;84;25803;-78
2022/03/27 02:45:14;;;;;;;12.93;4.55;;;;;;;0.63;66.68;102115.21;1650748;85;25951;-78
2022/03/27 02:47:40;;;;;;;17.02;4.45;;;;;;;0.58;66.70;102114.15;1638721;85;27483;-78
2022/03/27 02:50:07;;;;;;;10.43;3.65;;;;;;;0.59;67.07;102114.55;1644200;85;25907;-77
2022/03/27 02:52:34;;;;;;;13.18;5.62;;;;;;;0.58;66.99;102123.38;1647723;85;25968;-78
2022/03/27 02:55:00;;;;;;;12.90;3.95;;;;;;;0.57;66.89;102126.11;1647102;85;25917;-78
2022/03/27 02:57:26;;;;;;;14.25;4.05;;;;;;;0.57;66.95;102127.42;1647607;85;25983;-77
2022/03/27 02:59:53;;;;;;;9.70;4.70;;;;;;;0.52;66.99;102130.31;1646944;85;27528;-78
2022/03/27 03:02:20;;;;;;;12.60;3.67;;;;;;;0.51;67.19;102130.41;1650098;85;25762;-78
2022/03/27 03:04:47;;;;;;;10.13;4.03;;;;;;;0.48;67.38;102123.52;1638310;85;26521;-76
2022/03/27 03:07:14;;;;;;;15.58;5.53;;;;;;;0.46;67.38;102128.03;1644822;85;25863;-78
2022/03/27 03:09:42;;;;;;;15.03;5.15;;;;;;;0.45;67.11;102130.27;1650308;85;26002;-78
2022/03/27 03:12:10;;;;;;;16.10;4.67;;;;;;;0.50;67.13;102130.02;1637763;85;27538;-79
2022/03/27 03:14:36;;;;;;;12.28;3.55;;;;;;;0.52;67.14;102135.59;1661173;85;25878;-78
2022/03/27 03:17:04;;;;;;;12.50;4.40;;;;;;;0.53;67.07;102130.72;1659419;84;26639;-78
2022/03/27 03:19:31;;;;;;;11.80;3.70;;;;;;;0.53;67.09;102133.35;1650737;84;25831;-79
2022/03/27 03:21:58;;;;;;;14.20;5.03;;;;;;;0.50;67.29;102140.09;1650700;84;25764;-78
2022/03/27 03:24:25;;;;;;;12.15;3.33;;;;;;;0.49;67.16;102138.87;1645071;85;27470;-78
2022/03/27 03:26:52;;;;;;;11.10;4.55;;;;;;;0.51;67.20;102135.69;1649622;85;25779;-78
2022/03/27 03:29:18;;;;;;;10.18;3.72;;;;;;;0.51;67.21;102137.00;1658627;84;25330;-78
2022/03/27 03:31:44;;;;;;;11.30;3.87;;;;;;;0.52;67.30;102140.01;1651133;84;25883;-77
2022/03/27 03:34:10;;;;;;;14.85;4.47;;;;;;;0.51;67.38;102143.59;1651624;84;26632;-80
2022/03/27 03:36:37;;;;;;;14.70;3.98;;;;;;;0.50;67.42;102145.83;1645214;84;27482;-79
2022/03/27 03:39:05;;;;;;;8.00;3.60;;;;;;;0.48;67.48;102149.88;1655764;84;25370;-78
2022/03/27 03:41:32;;;;;;;9.85;4.25;;;;;;;0.45;67.46;102146.58;1616660;87;25332;-78
2022/03/27 03:43:58;;;;;;;11.38;4.55;;;;;;;0.44;67.61;102155.41;1639535;85;25987;-77
2022/03/27 03:46:24;;;;;;;16.12;4.00;;;;;;;0.40;67.54;102151.23;1637521;86;25372;-79
2022/03/27 03:48:51;;;;;;;9.10;3.80;;;;;;;0.34;67.73;102155.04;1628228;86;28315;-78
2022/03/27 03:51:19;;;;;;;6.58;3.45;;;;;;;0.32;67.66;102162.67;1622793;86;26079;-78
2022/03/27 03:53:45;;;;;;;16.00;4.80;;;;;;;0.33;67.84;102165.67;1645451;84;25860;-77
2022/03/27 03:56:12;;;;;;;9.20;3.70;;;;;;;0.29;67.62;102172.91;1611118;86;26169;-78
2022/03/27 03:58:38;;;;;;;14.07;4.33;;;;;;;0.24;67.93;102175.39;1614230;86;26626;-78
2022/03/27 04:01:05;;;;;;;11.83;4.58;;;;;;;0.20;68.07;102181.30;1650265;84;28538;-78
2022/03/27 04:03:31;;;;;;;11.73;4.40;;;;;;;0.21;68.04;102180.38;1624317;87;25964;-78
2022/03/27 04:05:57;;;;;;;13.45;4.00;;;;;;;0.22;68.03;102188.66;1646009;84;25870;-77
2022/03/27 04:08:24;;;;;;;11.88;4.30;;;;;;;0.21;68.05;102186.11;1653125;84;26846;-78
2022/03/27 04:10:50;;;;;;;15.83;4.35;;;;;;;0.20;68.06;102183.08;1657525;84;26250;-79
2022/03/27 04:13:16;;;;;;;15.80;4.28;;;;;;;0.16;68.16;102186.81;1655793;84;27622;-78
2022/03/27 04:15:42;;;;;;;16.12;4.22;;;;;;;0.15;68.08;102189.08;1660016;84;26134;-78
2022/03/27 04:18:09;;;;;;;15.65;5.40;;;;;;;0.16;68.20;102194.26;1664197;84;26582;-78
2022/03/27 04:20:35;;;;;;;12.20;4.20;;;;;;;0.14;68.16;102193.48;1664833;84;26505;-77
2022/03/27 04:23:02;;;;;;;12.53;4.50;;;;;;;0.14;68.17;102196.58;1665515;84;26500;-78
2022/03/27 04:25:29;;;;;;;12.50;3.95;;;;;;;0.12;68.47;102205.03;1653596;84;27458;-79
2022/03/27 04:27:55;;;;;;;8.33;3.98;;;;;;;0.08;68.79;102208.31;1654412;84;25995;-78
2022/03/27 04:30:21;;;;;;;12.85;4.37;;;;;;;0.06;68.71;102211.49;1660839;84;25755;-78
2022/03/27 04:32:47;;;;;;;12.60;4.22;;;;;;;0.03;68.92;102203.73;1666410;84;26506;-78
2022/03/27 04:35:14;;;;;;;9.65;3.77;;;;;;;0.02;69.07;102203.37;1643969;84;26012;-77
2022/03/27 04:37:46;;;;;;;11.55;4.17;;;;;;;-0.01;69.07;102199.56;1647699;84;27458;-79
2022/03/27 04:40:14;;;;;;;14.78;4.28;;;;;;;-0.04;69.53;102205.84;1657080;84;25825;-78
2022/03/27 04:42:42;;;;;;;9.63;4.03;;;;;;;-0.05;69.54;102205.47;1662685;85;25992;-78
2022/03/27 04:45:10;;;;;;;10.68;4.28;;;;;;;-0.05;69.61;102209.87;1660723;84;26706;-78
2022/03/27 04:47:36;;;;;;;12.80;4.10;;;;;;;-0.08;69.88;102216.61;1662511;84;26668;-77
2022/03/27 04:50:03;;;;;;;9.88;4.10;;;;;;;-0.10;69.99;102214.52;1654272;84;27694;-79
2022/03/27 04:52:29;;;;;;;9.33;4.35;;;;;;;-0.12;70.11;102214.61;1653191;84;25895;-77
2022/03/27 04:54:55;;;;;;;14.43;4.25;;;;;;;-0.14;70.18;102207.25;1645129;84;25971;-78
2022/03/27 04:57:22;;;;;;;11.95;4.70;;;;;;;-0.13;70.11;102220.80;1651581;85;25943;-78
2022/03/27 04:59:50;;;;;;;13.48;5.03;;;;;;;-0.12;70.35;102218.56;1631593;86;26537;-77
2022/03/27 05:02:17;;;;;;;12.40;4.30;;;;;;;-0.13;70.55;102219.97;1631354;86;27470;-79
2022/03/27 05:04:44;;;;;;;10.85;4.40;;;;;;;-0.11;70.57;102224.20;1640601;86;26528;-77
2022/03/27 05:07:10;;;;;;;18.07;4.97;;;;;;;-0.07;70.60;102223.59;1636158;86;25900;-78
2022/03/27 05:09:36;;;;;;;15.90;4.53;;;;;;;-0.03;70.62;102227.77;1649588;86;26228;-77
2022/03/27 05:12:03;;;;;;;12.10;3.87;;;;;;;-0.01;70.91;102232.48;1655876;84;26080;-77
2022/03/27 05:14:29;;;;;;;15.83;5.17;;;;;;;-0.02;70.72;102238.22;1662487;84;27679;-77
2022/03/27 05:16:55;;;;;;;12.90;3.98;;;;;;;0.03;70.87;102239.30;1643030;84;26585;-78
2022/03/27 05:19:22;;;;;;;8.83;3.85;;;;;;;0.05;70.75;102243.16;1655379;84;26219;-78
2022/03/27 05:21:48;;;;;;;11.12;3.77;;;;;;;0.06;70.95;102248.38;1650824;84;25837;-77
2022/03/27 05:24:14;;;;;;;15.70;4.22;;;;;;;0.08;71.03;102252.23;1653542;85;25984;-77
2022/03/27 05:26:41;;;;;;;9.40;3.80;;;;;;;0.09;71.18;102254.78;1657666;85;27462;-77
2022/03/27 05:29:10;;;;;;;8.20;3.58;;;;;;;0.12;71.15;102262.54;1656634;85;25961;-76
2022/03/27 05:31:35;;;;;;;13.78;4.70;;;;;;;0.14;71.28;102263.77;1656404;85;26623;-78
2022/03/27 05:34:03;;;;;;;17.48;4.00;;;;;;;0.16;71.04;102271.13;1654480;85;25779;-77
2022/03/27 05:36:29;;;;;;;15.70;4.65;;;;;;;0.20;71.20;102268.25;1655051;85;26485;-78
2022/03/27 05:38:56;;;;;;;12.00;4.10;;;;;;;0.23;71.29;102284.37;1653657;85;27520;-78
2022/03/27 05:41:24;;;;;;;14.58;4.17;;;;;;;0.26;71.49;102278.47;1656545;85;25894;-77
2022/03/27 05:43:50;;;;;;;15.75;4.03;;;;;;;0.32;71.61;102285.22;1654747;85;25888;-79
2022/03/27 05:46:16;;;;;;;13.45;3.20;;;;;;;0.37;71.29;102284.50;1655739;85;25856;-77
2022/03/27 05:48:42;;;;;;;10.32;3.98;;;;;;;0.42;71.41;102281.16;1652504;85;25791;-78
2022/03/27 05:51:08;;;;;;;11.68;3.45;;;;;;;0.48;71.22;102280.83;1657862;85;28266;-77
2022/03/27 05:53:35;;;;;;;14.15;4.10;;;;;;;0.54;71.21;102265.54;1619472;86;25963;-77
2022/03/27 05:56:01;;;;;;;9.45;4.03;;;;;;;0.60;71.17;102272.25;1626936;86;25814;-77
2022/03/27 05:58:28;;;;;;;12.23;3.95;;;;;;;0.65;71.09;102276.83;1627092;86;26499;-77
2022/03/27 06:00:54;;;;;;;8.25;3.40;;;;;;;0.69;71.10;102283.63;1607072;87;26079;-77
2022/03/27 06:03:20;;;;;;;10.55;4.03;;;;;;;0.71;71.24;102289.67;1653021;85;27446;-78
2022/03/27 06:05:46;;;;;;;9.58;3.95;;;;;;;0.72;71.24;102288.30;1659365;85;25806;-77
2022/03/27 06:08:13;;;;;;;10.25;3.35;;;;;;;0.76;71.25;102289.83;1655412;85;25992;-77
2022/03/27 06:10:40;;;;;;;12.07;3.52;;;;;;;0.83;71.30;102297.41;1656326;85;26021;-77
2022/03/27 06:13:07;;;;;;;9.50;3.30;;;;;;;0.89;71.26;102301.88;1645484;85;25822;-77
2022/03/27 06:15:33;;;;;;;13.43;4.87;;;;;;;0.97;71.51;102304.09;1653855;84;27474;-77
2022/03/27 06:17:59;;;;;;;8.35;3.12;;;;;;;1.07;71.50;102307.45;1653161;84;26119;-77
2022/03/27 06:20:29;;;;;;;7.85;3.45;;;;;;;1.19;71.67;102312.08;1641547;84;25791;-77
2022/03/27 06:22:57;;;;;;;7.58;3.45;;;;;;;1.33;71.66;102317.42;1663986;84;25846;-78
2022/03/27 06:25:26;;;;;;;8.90;3.30;;;;;;;1.48;71.78;102316.56;1650197;84;25882;-77
2022/03/27 06:27:53;;;;;;;10.78;3.75;;;;;;;1.61;71.21;102319.81;1663527;84;27535;-77
2022/03/27 06:30:23;;;;;;;9.65;3.22;;;;;;;1.75;71.29;102327.36;1655325;85;26629;-77
2022/03/27 06:32:53;;;;;;;9.58;2.83;;;;;;;1.89;71.12;102323.89;1632149;86;26357;-77
2022/03/27 06:35:25;;;;;;;9.30;2.37;;;;;;;2.03;70.62;102326.11;1645157;84;25939;-77
2022/03/27 06:37:51;;;;;;;10.70;3.27;;;;;;;2.15;69.86;102328.05;1646942;84;25836;-77
2022/03/27 06:40:19;;;;;;;4.85;2.55;;;;;;;2.27;69.39;102318.52;1645962;84;27466;-78
2022/03/27 06:42:46;;;;;;;6.55;2.62;;;;;;;2.41;69.33;102314.59;1613855;86;26039;-78
2022/03/27 06:45:14;;;;;;;7.53;3.05;;;;;;;2.57;69.13;102319.78;1624337;86;25641;-78
2022/03/27 06:47:43;;;;;;;7.08;2.72;;;;;;;2.70;68.53;102317.62;1647275;86;25861;-76
2022/03/27 06:50:10;;;;;;;9.20;2.37;;;;;;;2.85;67.98;102314.02;1650395;84;25387;-77
2022/03/27 06:52:37;;;;;;;7.28;2.40;;;;;;;3.00;66.27;102315.72;1649698;84;27442;-77
2022/03/27 06:55:06;;;;;;;5.62;2.02;;;;;;;3.11;65.28;102323.83;1606292;87;25796;-77
2022/03/27 06:57:33;;;;;;;7.87;1.95;;;;;;;3.21;64.83;102317.97;1652192;85;25944;-77
2022/03/27 07:03:03;;;;;;;5.45;2.15;;;;;;;3.37;64.83;102321.31;1659265;84;26007;-77
2022/03/27 07:05:42;;;;;;;4.62;1.80;;;;;;;3.49;63.50;102333.76;1657410;85;27301;-79
2022/03/27 07:08:13;;;;;;;10.13;2.22;;;;;;;3.54;62.03;102337.83;1655623;85;25858;-77
2022/03/27 07:10:42;;;;;;;4.72;2.22;;;;;;;3.62;62.08;102339.50;1619616;87;26608;-78
2022/03/27 07:13:11;;;;;;;4.20;1.52;;;;;;;3.74;61.60;102342.66;1628401;86;26500;-77
2022/03/27 07:15:40;;;;;;;3.90;1.95;;;;;;;3.83;60.31;102351.81;1606990;87;25967;-78
2022/03/27 07:18:08;;;;;;;6.15;1.90;;;;;;;3.89;61.08;102342.98;1654751;85;28734;-77
2022/03/27 07:20:40;;;;;;;6.00;1.82;;;;;;;4.00;61.17;102351.55;1654834;85;25844;-76
2022/03/27 07:23:09;;;;;;;8.73;1.95;;;;;;;4.10;60.74;102357.09;1644988;85;26626;-78
2022/03/27 07:25:39;;;;;;;7.03;1.80;;;;;;;4.16;59.76;102350.91;1658268;84;25775;-76
2022/03/27 07:28:08;;;;;;;6.03;1.90;;;;;;;4.27;59.73;102359.00;1646643;84;25808;-77
2022/03/27 07:30:35;;;;;;;6.67;1.95;;;;;;;4.29;57.69;102361.54;1658148;84;27482;-78
2022/03/27 07:33:03;;;;;;;2.62;1.50;;;;;;;4.28;56.73;102358.03;1654831;85;26211;-78
2022/03/27 07:35:34;;;;;;;4.87;1.67;;;;;;;4.34;56.01;102373.53;1660384;85;26503;-78
2022/03/27 07:38:03;;;;;;;4.53;1.42;;;;;;;4.37;53.59;102375.98;1664445;85;26579;-78
2022/03/27 07:40:29;;;;;;;1.92;1.10;;;;;;;4.43;54.26;102369.41;1662649;85;26192;-78
2022/03/27 07:42:57;;;;;;;4.30;1.10;;;;;;;4.51;54.96;102378.54;1664330;85;28186;-78
2022/03/27 07:45:27;;;;;;;5.92;1.70;;;;;;;4.61;52.35;102374.80;1662552;85;26494;-78
2022/03/27 07:47:55;;;;;;;4.15;1.52;;;;;;;4.64;52.78;102376.75;1664236;85;26549;-78
2022/03/27 07:50:25;;;;;;;5.92;1.70;;;;;;;4.67;52.54;102376.55;1662734;85;26670;-78
2022/03/27 07:52:52;;;;;;;2.08;1.12;;;;;;;4.79;53.53;102374.01;1660656;85;25320;-79
2022/03/27 07:55:20;;;;;;;5.25;1.62;;;;;;;4.92;51.17;102365.56;1662833;85;27549;-78
2022/03/27 07:57:47;;;;;;;5.70;1.32;;;;;;;5.02;52.28;102359.97;1664142;85;25884;-78
2022/03/27 08:00:16;;;;;;;5.85;1.50;;;;;;;5.09;50.70;102354.09;1662440;85;25809;-80
2022/03/27 08:02:45;;;;;;;2.27;1.15;;;;;;;5.15;48.29;102352.36;1663867;85;26146;-79
2022/03/27 08:05:12;;;;;;;1.85;1.05;;;;;;;5.16;46.54;102347.41;1664164;85;25849;-77
2022/03/27 08:07:39;;;;;;;4.03;1.27;;;;;;;5.17;48.71;102345.13;1662873;85;27463;-77
2022/03/27 08:10:07;;;;;;;2.47;1.12;;;;;;;5.19;48.74;102345.02;1652219;85;26106;-77
2022/03/27 08:12:35;;;;;;;2.52;1.05;;;;;;;5.21;46.68;102335.13;1663261;85;25527;-78
2022/03/27 08:15:04;;;;;;;2.92;1.27;;;;;;;5.22;46.19;102342.12;1658670;85;26236;-78
2022/03/27 08:17:30;;;;;;;2.62;1.15;;;;;;;5.28;47.23;102337.72;1663620;85;26102;-78
2022/03/27 08:19:57;;;;;;;2.75;1.37;;;;;;;5.32;46.66;102329.39;1656013;85;28267;-78
2022/03/27 08:22:24;;;;;;;2.85;1.40;;;;;;;5.36;46.06;102333.55;1657384;86;26371;-78
2022/03/27 08:24:51;;;;;;;4.30;1.10;;;;;;;5.40;46.34;102333.69;1653456;85;26475;-78
2022/03/27 08:27:19;;;;;;;2.58;1.20;;;;;;;5.45;45.96;102334.19;1658001;85;25881;-78
2022/03/27 08:29:48;;;;;;;2.65;1.30;;;;;;;5.52;45.67;102336.42;1633218;86;25988;-78
2022/03/27 08:32:17;;;;;;;3.17;1.40;;;;;;;5.55;44.84;102330.39;1605020;85;27656;-78
2022/03/27 08:34:47;;;;;;;3.98;1.12;;;;;;;5.60;45.79;102330.06;1644863;86;25797;-78
2022/03/27 08:37:16;;;;;;;4.33;0.90;;;;;;;5.68;44.09;102340.97;1643615;86;25923;-78
2022/03/27 08:39:46;;;;;;;2.08;1.00;;;;;;;5.72;44.16;102347.28;1651186;86;25789;-79
2022/03/27 08:42:16;;;;;;;2.65;1.17;;;;;;;5.78;44.87;102346.82;1628774;84;26576;-78
2022/03/27 08:44:42;;;;;;;3.72;0.85;;;;;;;5.84;43.30;102354.38;1651380;84;27559;-77
2022/03/27 08:47:25;;;;;;;2.62;1.10;;;;;;;5.80;43.86;102342.23;1635829;86;26460;-77
2022/03/27 08:50:34;;;;;;;2.12;0.93;;;;;;;5.88;45.00;102347.86;1653731;85;25900;-79
2022/03/27 08:53:05;;;;;;;3.17;1.15;;;;;;;6.02;41.93;102347.70;1644981;85;25825;-78
2022/03/27 08:56:00;;;;;;;5.53;1.45;;;;;;;6.11;42.76;102351.48;1648848;84;25327;-77
2022/03/27 08:58:34;;;;;;;2.25;1.40;;;;;;;6.13;42.52;102349.55;1661066;85;28357;-78
2022/03/27 09:01:04;;;;;;;3.45;1.02;;;;;;;6.09;42.21;102350.75;1648541;84;25932;-78
2022/03/27 09:03:31;;;;;;;2.83;0.85;;;;;;;6.16;43.00;102353.30;1644538;84;25900;-79
2022/03/27 09:06:00;;;;;;;4.65;1.22;;;;;;;6.22;42.88;102345.70;1651165;85;25843;-79
2022/03/27 09:08:26;;;;;;;2.33;1.00;;;;;;;6.24;41.81;102345.09;1656564;84;25849;-78
2022/03/27 09:10:53;;;;;;;2.70;0.80;;;;;;;6.23;40.33;102348.73;1652663;84;27537;-78
2022/03/27 09:13:20;;;;;;;2.98;0.90;;;;;;;6.16;40.66;102347.50;1653151;84;26244;-77
2022/03/27 09:16:07;;;;;;;3.80;0.98;;;;;;;6.19;40.92;102341.95;1658068;85;25838;-80
2022/03/27 09:18:57;;;;;;;6.62;1.65;;;;;;;6.32;41.20;102335.22;1655316;85;26589;-78
2022/03/27 09:21:29;;;;;;;3.87;1.20;;;;;;;6.37;41.75;102338.38;1648265;84;25864;-78
2022/03/27 09:24:02;;;;;;;3.42;1.30;;;;;;;6.44;41.72;102325.42;1644748;84;28280;-77
2022/03/27 09:26:32;;;;;;;5.50;2.25;;;;;;;6.53;42.64;102326.05;1660415;84;25779;-77
2022/03/27 09:29:10;;;;;;;2.75;1.22;;;;;;;6.71;43.66;102332.63;1637134;84;25887;-78
2022/03/27 09:31:37;;;;;;;2.83;1.22;;;;;;;6.78;41.82;102336.00;1646456;84;25812;-78
2022/03/27 09:34:03;;;;;;;4.12;1.00;;;;;;;6.79;40.21;102332.39;1662698;84;25808;-78
2022/03/27 09:36:33;;;;;;;4.80;1.07;;;;;;;6.82;40.81;102338.78;1655552;85;27471;-77
2022/03/27 09:39:13;;;;;;;3.10;1.32;;;;;;;6.90;40.81;102336.39;1651160;84;25370;-78
2022/03/27 09:41:44;;;;;;;1.90;1.10;;;;;;;7.03;40.82;102352.25;1657276;84;26583;-77
2022/03/27 09:44:15;;;;;;;;;;;;;;;7.02;39.84;102338.55;1652502;84;26514;-78
2022/03/27 09:47:02;;;;;;;3.47;1.10;;;;;;;7.02;40.87;102337.22;1652585;84;25425;-78
2022/03/27 09:49:41;;;;;;;2.42;1.10;;;;;;;7.10;41.25;102328.13;1652248;84;28598;-77
2022/03/27 09:52:12;;;;;;;4.45;1.10;;;;;;;7.14;39.62;102340.27;1655447;84;26498;-78
2022/03/27 09:54:51;;;;;;;3.58;1.22;;;;;;;7.12;39.40;102325.36;1657679;84;26679;-77
2022/03/27 09:57:24;;;;;;;4.62;1.27;;;;;;;7.13;39.78;102325.70;1657771;84;26501;-78
2022/03/27 09:59:52;;;;;;;1.72;1.00;;;;;;;7.12;40.24;102324.03;1648384;84;26134;-80
2022/03/27 10:02:29;;;;;;;2.30;0.90;;;;;;;7.12;39.18;102328.84;1639849;86;27570;-79
2022/03/27 10:05:05;;;;;;;2.25;1.00;;;;;;;7.19;38.93;102321.22;1642241;86;25836;-78
2022/03/27 10:07:47;;;;;;;2.27;0.98;;;;;;;7.30;38.83;102317.20;1598646;87;25835;-78
2022/03/27 10:10:17;;;;;;;5.25;1.30;;;;;;;7.37;38.94;102326.41;1647828;84;27037;-78
2022/03/27 10:12:46;;;;;;;2.65;2.02;;;;;;;7.40;38.78;102318.17;1654808;85;25763;-78
2022/03/27 10:15:17;;;;;;;3.62;1.37;;;;;;;7.44;38.17;102309.78;1607172;87;27484;-77
2022/03/27 10:18:00;;;;;;;3.10;1.75;;;;;;;7.45;38.52;102310.16;1655923;85;25924;-78
2022/03/27 10:20:32;;;;;;;2.98;1.25;;;;;;;7.48;38.80;102301.06;1647240;84;26524;-79
2022/03/27 10:23:07;;;;;;;2.60;0.98;;;;;;;7.53;38.94;102296.18;1648316;84;26359;-79
2022/03/27 10:25:41;;;;;;;3.40;1.02;;;;;;;7.65;38.53;102289.38;1656530;84;25956;-78
2022/03/27 10:28:08;;;;;;;3.00;0.82;;;;;;;7.76;38.46;102279.97;1656447;84;27470;-78
2022/03/27 10:30:35;;;;;;;2.10;1.00;;;;;;;7.84;37.38;102290.02;1658729;84;25815;-78
2022/03/27 10:33:03;;;;;;;2.20;0.93;;;;;;;7.84;37.97;102285.17;1653075;84;25971;-78
2022/03/27 10:35:46;;;;;;;1.90;0.90;;;;;;;7.86;37.98;102275.21;1645151;84;25764;-78
2022/03/27 10:38:42;;;;;;;2.83;1.20;;;;;;;7.88;36.91;102275.45;1648789;84;25971;-78
2022/03/27 10:41:39;;;;;;;1.05;0.70;;;;;;;7.94;36.70;102276.27;1632090;85;27560;-77
2022/03/27 10:44:39;;;;;;;3.95;0.90;;;;;;;7.86;37.75;102254.72;1619186;87;26572;-77
2022/03/27 10:47:20;;;;;;;3.40;0.93;;;;;;;7.92;37.64;102254.68;1642619;85;25926;-78
2022/03/27 10:50:08;;;;;;;3.20;1.00;;;;;;;7.96;38.36;102251.63;1655246;85;26626;-78
2022/03/27 10:52:54;;;;;;;3.40;1.12;;;;;;;8.02;36.76;102243.61;1642210;85;25810;-77
2022/03/27 10:55:20;;;;;;;2.47;0.75;;;;;;;8.11;38.69;102246.80;1648934;85;27448;-78
2022/03/27 10:57:49;;;;;;;4.15;0.93;;;;;;;8.19;37.48;102252.36;1648228;85;25825;-77
2022/03/27 11:00:40;;;;;;;3.70;1.30;;;;;;;8.25;37.44;102255.39;1628686;84;25983;-79
2022/03/27 11:03:07;;;;;;;2.58;1.00;;;;;;;8.25;37.41;102255.84;1659484;84;26525;-78
2022/03/27 11:05:40;;;;;;;2.87;0.72;;;;;;;8.22;37.33;102247.59;1652306;84;25790;-77
2022/03/27 11:08:22;;;;;;;3.20;0.90;;;;;;;8.26;37.18;102249.53;1651335;84;27441;-77
2022/03/27 11:10:55;;;;;;;1.77;0.80;;;;;;;8.32;38.22;102247.66;1644709;84;26072;-77
2022/03/27 11:13:33;;;;;;;5.55;1.02;;;;;;;8.42;38.04;102252.11;1640927;86;25825;-79
2022/03/27 11:16:05;;;;;;;3.65;0.93;;;;;;;8.51;37.42;102239.27;1631733;86;25974;-78
2022/03/27 11:18:46;;;;;;;4.00;0.70;;;;;;;8.54;37.63;102247.03;1639982;86;25902;-78
2022/03/27 11:21:15;;;;;;;3.62;1.17;;;;;;;8.62;37.29;102246.34;1642458;86;27724;-78
2022/03/27 11:23:42;;;;;;;2.62;0.98;;;;;;;8.66;36.62;102248.28;1632724;86;26239;-78
2022/03/27 11:26:23;;;;;;;5.22;1.20;;;;;;;8.61;36.82;102238.48;1631878;86;25960;-78
2022/03/27 11:28:53;;;;;;;2.80;0.85;;;;;;;8.64;37.38;102239.04;1608527;87;26638;-78
2022/03/27 11:31:30;;;;;;;3.83;1.15;;;;;;;8.67;37.04;102234.78;1631907;86;26018;-78
2022/03/27 11:34:14;;;;;;;1.92;0.90;;;;;;;8.74;36.89;102231.94;1631330;86;27484;-77
2022/03/27 11:36:51;;;;;;;3.80;1.00;;;;;;;8.74;36.54;102230.59;1631418;86;25894;-77
2022/03/27 11:39:34;;;;;;;2.92;1.05;;;;;;;8.80;37.99;102225.19;1635876;86;25837;-78
2022/03/27 11:42:31;;;;;;;3.60;1.17;;;;;;;8.87;37.25;102225.01;1655363;86;26395;-78
2022/03/27 11:45:21;;;;;;;3.92;1.10;;;;;;;8.96;38.10;102216.18;1641884;86;26444;-78
2022/03/27 11:47:52;;;;;;;2.25;1.15;;;;;;;9.02;37.21;102202.27;1639976;86;27010;-78